createdAt,value
2019-02-19T00:01:17.238Z,4.80
2019-02-19T00:03:48.719Z,4.80
2019-02-19T00:06:18.408Z,4.80
2019-02-19T00:08:48.129Z,4.80
2019-02-19T00:11:17.157Z,4.80
2019-02-19T00:13:47.915Z,4.80
2019-02-19T00:16:18.677Z,4.80
2019-02-19T00:18:49.586Z,4.80
2019-02-19T00:21:20.495Z,4.90
2019-02-19T00:23:52.213Z,4.90
2019-02-19T00:26:22.408Z,4.90
2019-02-19T00:28:55.555Z,4.90
2019-02-19T00:31:27.073Z,4.90
2019-02-19T00:33:58.803Z,4.90
2019-02-19T00:36:28.936Z,4.80
2019-02-19T00:38:58.364Z,4.90
2019-02-19T00:41:32.046Z,4.90
2019-02-19T00:44:03.521Z,4.80
2019-02-19T00:46:32.729Z,4.90
2019-02-19T00:49:03.720Z,4.90
2019-02-19T00:51:34.460Z,4.90
2019-02-19T00:54:06.008Z,4.90
2019-02-19T00:56:38.468Z,4.90
2019-02-19T00:59:08.970Z,4.90
2019-02-19T01:01:39.964Z,4.90
2019-02-19T01:04:11.064Z,4.90
2019-02-19T01:06:40.812Z,4.80
2019-02-19T01:09:12.725Z,4.80
2019-02-19T01:11:46.315Z,4.80
2019-02-19T01:14:19.718Z,4.70
2019-02-19T01:16:51.601Z,4.70
2019-02-19T01:19:24.296Z,4.70
2019-02-19T01:21:57.778Z,4.70
2019-02-19T01:24:28.842Z,4.60
2019-02-19T01:27:03.696Z,4.60
2019-02-19T01:29:34.997Z,4.50
2019-02-19T01:32:08.427Z,4.50
2019-02-19T01:34:38.897Z,4.40
2019-02-19T01:37:11.125Z,4.40
2019-02-19T01:39:44.104Z,4.40
2019-02-19T01:42:14.603Z,4.40
2019-02-19T01:44:47.099Z,4.30
2019-02-19T01:47:17.737Z,4.30
2019-02-19T01:49:52.883Z,4.20
2019-02-19T01:52:24.788Z,4.30
2019-02-19T01:54:53.913Z,4.20
2019-02-19T01:57:24.745Z,4.30
2019-02-19T01:59:54.362Z,4.20
2019-02-19T02:02:28.715Z,4.20
2019-02-19T02:04:58.788Z,4.20
2019-02-19T02:07:28.064Z,4.30
2019-02-19T02:09:58.164Z,4.30
2019-02-19T02:12:31.019Z,4.30
2019-02-19T02:15:03.908Z,4.30
2019-02-19T02:17:35.193Z,4.30
2019-02-19T02:20:09.866Z,4.30
2019-02-19T02:22:49.977Z,4.40
2019-02-19T02:25:24.460Z,4.30
2019-02-19T02:27:57.096Z,4.30
2019-02-19T02:30:30.076Z,4.40
2019-02-19T02:33:01.702Z,4.40
2019-02-19T02:35:33.557Z,4.40
2019-02-19T02:38:08.148Z,4.30
2019-02-19T02:40:40.468Z,4.30
2019-02-19T02:43:10.683Z,4.40
2019-02-19T02:45:40.501Z,4.30
2019-02-19T02:48:12.038Z,4.30
2019-02-19T02:50:44.426Z,4.30
2019-02-19T02:53:15.333Z,4.30
2019-02-19T02:55:48.405Z,4.30
2019-02-19T02:58:24.076Z,4.30
2019-02-19T03:00:55.846Z,4.30
2019-02-19T03:03:26.785Z,4.20
2019-02-19T03:06:11.106Z,4.20
2019-02-19T03:08:42.035Z,4.20
2019-02-19T03:11:16.717Z,4.20
2019-02-19T03:13:48.775Z,4.20
2019-02-19T03:16:20.361Z,4.30
2019-02-19T03:19:06.033Z,4.20
2019-02-19T03:21:38.507Z,4.20
2019-02-19T03:24:10.973Z,4.20
2019-02-19T03:26:42.415Z,4.20
2019-02-19T03:29:14.825Z,4.20
2019-02-19T03:31:46.733Z,4.20
2019-02-19T03:34:16.952Z,4.20
2019-02-19T03:36:47.658Z,4.20
2019-02-19T03:39:18.620Z,4.20
2019-02-19T03:41:53.204Z,4.20
2019-02-19T03:44:26.022Z,4.20
2019-02-19T03:46:58.770Z,4.20
2019-02-19T03:49:30.231Z,4.20
2019-02-19T03:52:02.773Z,4.30
2019-02-19T03:54:35.277Z,4.20
2019-02-19T03:57:08.040Z,4.30
2019-02-19T03:59:39.487Z,4.30
2019-02-19T04:02:11.429Z,4.30
2019-02-19T04:04:44.061Z,4.30
2019-02-19T04:07:16.465Z,4.30
2019-02-19T04:09:47.949Z,4.30
2019-02-19T04:12:18.638Z,4.30
2019-02-19T04:14:51.056Z,4.30
2019-02-19T04:17:21.865Z,4.30
2019-02-19T04:19:54.628Z,4.30
2019-02-19T04:22:26.113Z,4.30
2019-02-19T04:24:57.496Z,4.30
2019-02-19T04:27:31.261Z,4.30
2019-02-19T04:30:02.669Z,4.40
2019-02-19T04:32:32.566Z,4.40
2019-02-19T04:35:06.844Z,4.40
2019-02-19T04:37:39.789Z,4.40
2019-02-19T04:40:11.380Z,4.40
2019-02-19T04:42:43.738Z,4.40
2019-02-19T04:45:15.324Z,4.40
2019-02-19T04:47:47.768Z,4.50
2019-02-19T04:50:22.430Z,4.40
2019-02-19T04:52:54.830Z,4.40
2019-02-19T04:55:26.353Z,4.40
2019-02-19T04:57:55.600Z,4.40
2019-02-19T05:00:26.908Z,4.40
2019-02-19T05:02:57.721Z,4.40
2019-02-19T05:05:30.246Z,4.50
2019-02-19T05:08:02.116Z,4.50
2019-02-19T05:10:34.193Z,4.50
2019-02-19T05:13:04.530Z,4.50
2019-02-19T05:15:37.101Z,4.50
2019-02-19T05:18:07.884Z,4.50
2019-02-19T05:20:42.034Z,4.40
2019-02-19T05:23:11.510Z,4.50
2019-02-19T05:25:44.243Z,4.50
2019-02-19T05:28:13.405Z,4.50
2019-02-19T05:30:47.054Z,4.50
2019-02-19T05:33:18.586Z,4.50
2019-02-19T05:35:49.640Z,4.50
2019-02-19T05:38:21.929Z,4.50
2019-02-19T05:40:55.609Z,4.60
2019-02-19T05:43:27.722Z,4.50
2019-02-19T05:45:58.132Z,4.50
2019-02-19T05:48:33.174Z,4.50
2019-02-19T05:51:05.210Z,4.50
2019-02-19T05:53:35.617Z,4.50
2019-02-19T05:56:05.690Z,4.50
2019-02-19T05:58:36.737Z,4.60
2019-02-19T06:01:06.329Z,4.50
2019-02-19T06:03:36.292Z,4.50
2019-02-19T06:06:07.364Z,4.50
2019-02-19T06:08:38.264Z,4.60
2019-02-19T06:11:09.640Z,4.50
2019-02-19T06:13:41.113Z,4.50
2019-02-19T06:16:14.635Z,4.50
2019-02-19T06:18:45.793Z,4.50
2019-02-19T06:21:16.751Z,4.50
2019-02-19T06:23:49.182Z,4.50
2019-02-19T06:26:19.456Z,4.50
2019-02-19T06:28:50.361Z,4.50
2019-02-19T06:31:23.325Z,4.50
2019-02-19T06:33:54.773Z,4.50
2019-02-19T06:36:25.265Z,4.50
2019-02-19T06:38:56.297Z,4.50
2019-02-19T06:41:25.487Z,4.50
2019-02-19T06:43:54.639Z,4.50
2019-02-19T06:46:23.528Z,4.50
2019-02-19T06:48:52.671Z,4.40
2019-02-19T06:51:23.820Z,4.50
2019-02-19T06:53:57.686Z,4.50
2019-02-19T06:56:28.518Z,4.50
2019-02-19T06:59:00.019Z,4.50
2019-02-19T07:02:06.628Z,4.40
2019-02-19T07:04:45.583Z,4.40
2019-02-19T07:07:15.762Z,4.40
2019-02-19T07:09:47.885Z,4.40
2019-02-19T07:12:20.298Z,4.40
2019-02-19T07:14:52.427Z,4.30
2019-02-19T07:17:25.173Z,4.30
2019-02-19T07:19:56.038Z,4.40
2019-02-19T07:22:27.008Z,4.30
2019-02-19T07:24:57.913Z,4.30
2019-02-19T07:27:29.131Z,4.30
2019-02-19T07:29:59.306Z,4.30
2019-02-19T07:32:29.228Z,4.40
2019-02-19T07:35:01.162Z,4.40
2019-02-19T07:37:32.919Z,4.40
2019-02-19T07:40:05.600Z,4.40
2019-02-19T07:42:37.386Z,4.50
2019-02-19T07:45:08.407Z,4.50
2019-02-19T07:47:39.309Z,4.50
2019-02-19T07:50:11.087Z,4.50
2019-02-19T07:52:42.617Z,4.50
2019-02-19T07:55:14.467Z,4.50
2019-02-19T07:57:47.000Z,4.50
2019-02-19T08:00:20.517Z,4.50
2019-02-19T08:02:50.875Z,4.50
2019-02-19T08:05:22.480Z,4.60
2019-02-19T08:07:54.997Z,4.60
2019-02-19T08:10:27.689Z,4.60
2019-02-19T08:13:00.018Z,4.60
2019-02-19T08:15:34.314Z,4.60
2019-02-19T08:18:05.894Z,4.60
2019-02-19T08:20:37.466Z,4.60
2019-02-19T08:23:09.324Z,4.60
2019-02-19T08:25:42.394Z,4.60
2019-02-19T08:28:14.057Z,4.70
2019-02-19T08:30:54.924Z,4.70
2019-02-19T08:33:28.396Z,4.70
2019-02-19T08:36:03.057Z,4.70
2019-02-19T08:38:34.517Z,4.80
2019-02-19T08:41:06.003Z,4.80
2019-02-19T08:43:37.558Z,4.80
2019-02-19T08:46:09.384Z,4.80
2019-02-19T08:48:40.199Z,4.80
2019-02-19T08:51:12.709Z,4.80
2019-02-19T08:53:44.425Z,4.90
2019-02-19T08:56:15.141Z,4.80
2019-02-19T08:58:47.573Z,4.80
2019-02-19T09:01:18.881Z,4.80
2019-02-19T09:03:51.371Z,4.80
2019-02-19T09:06:22.745Z,4.80
2019-02-19T09:08:53.515Z,4.80
2019-02-19T09:11:23.796Z,4.80
2019-02-19T09:13:55.484Z,4.80
2019-02-19T09:16:25.885Z,4.80
2019-02-19T09:18:57.085Z,4.80
2019-02-19T09:21:29.049Z,4.80
2019-02-19T09:23:59.425Z,4.80
2019-02-19T09:26:32.297Z,4.80
2019-02-19T09:29:03.191Z,4.80
2019-02-19T09:31:36.649Z,4.80
2019-02-19T09:34:08.360Z,4.80
2019-02-19T09:36:38.985Z,4.80
2019-02-19T09:39:10.570Z,4.90
2019-02-19T09:41:41.973Z,4.90
2019-02-19T09:44:13.449Z,4.90
2019-02-19T09:46:44.988Z,4.90
2019-02-19T09:49:16.181Z,4.90
2019-02-19T09:51:47.144Z,4.90
2019-02-19T09:54:19.501Z,4.90
2019-02-19T09:56:51.472Z,4.90
2019-02-19T09:59:22.887Z,4.90
2019-02-19T10:01:55.321Z,4.90
2019-02-19T10:04:26.685Z,4.90
2019-02-19T10:07:02.992Z,4.90
2019-02-19T10:09:35.046Z,4.90
2019-02-19T10:12:06.413Z,4.90
2019-02-19T10:14:38.921Z,4.90
2019-02-19T10:17:09.359Z,4.90
2019-02-19T10:19:41.769Z,4.90
2019-02-19T10:22:14.703Z,4.90
2019-02-19T10:24:46.963Z,4.90
2019-02-19T10:27:19.349Z,5.00
2019-02-19T10:29:51.254Z,5.00
2019-02-19T10:32:24.202Z,5.00
2019-02-19T10:34:55.562Z,5.00
2019-02-19T10:37:26.907Z,5.00
2019-02-19T10:39:58.382Z,5.00
2019-02-19T10:42:29.270Z,5.00
2019-02-19T10:44:58.689Z,5.10
2019-02-19T10:47:28.256Z,5.00
2019-02-19T10:49:57.931Z,5.00
2019-02-19T10:52:30.025Z,5.00
2019-02-19T10:55:00.445Z,5.00
2019-02-19T10:57:32.603Z,5.10
2019-02-19T11:00:02.962Z,5.10
2019-02-19T11:02:34.957Z,5.10
2019-02-19T11:05:07.659Z,5.10
2019-02-19T11:07:38.510Z,5.10
2019-02-19T11:10:08.317Z,5.10
2019-02-19T11:12:40.764Z,5.00
2019-02-19T11:15:12.982Z,5.10
2019-02-19T11:17:44.042Z,5.00
2019-02-19T11:20:14.776Z,5.10
2019-02-19T11:22:45.096Z,5.20
2019-02-19T11:25:16.947Z,5.20
2019-02-19T11:27:47.846Z,5.30
2019-02-19T11:30:22.443Z,5.40
2019-02-19T11:32:55.057Z,5.40
2019-02-19T11:35:26.349Z,5.40
2019-02-19T11:37:59.824Z,5.40
2019-02-19T11:40:30.953Z,5.40
2019-02-19T11:43:02.731Z,5.40
2019-02-19T11:45:34.940Z,5.40
2019-02-19T11:48:07.281Z,5.40
2019-02-19T11:50:37.193Z,5.40
2019-02-19T11:53:08.210Z,5.40
2019-02-19T11:55:40.232Z,5.50
2019-02-19T11:58:10.472Z,5.60
2019-02-19T12:00:44.937Z,5.60
2019-02-19T12:03:16.433Z,5.50
2019-02-19T12:05:48.340Z,5.50
2019-02-19T12:08:18.965Z,5.50
2019-02-19T12:10:51.925Z,5.60
2019-02-19T12:13:22.651Z,5.70
2019-02-19T12:15:52.832Z,5.70
2019-02-19T12:18:23.721Z,5.80
2019-02-19T12:20:57.662Z,5.90
2019-02-19T12:23:28.564Z,5.90
2019-02-19T12:25:59.456Z,5.90
2019-02-19T12:28:29.617Z,5.90
2019-02-19T12:30:58.882Z,5.80
2019-02-19T12:33:30.482Z,5.80
2019-02-19T12:36:02.449Z,5.90
2019-02-19T12:38:32.150Z,5.90
2019-02-19T12:41:02.154Z,5.90
2019-02-19T12:43:33.653Z,5.90
2019-02-19T12:46:06.158Z,5.90
2019-02-19T12:48:38.665Z,5.90
2019-02-19T12:51:12.073Z,5.90
2019-02-19T12:53:43.931Z,5.80
2019-02-19T12:56:16.610Z,5.80
2019-02-19T12:58:50.070Z,5.80
2019-02-19T13:01:21.913Z,5.80
2019-02-19T13:03:55.820Z,5.80
2019-02-19T13:06:26.621Z,5.80
2019-02-19T13:09:03.781Z,5.70
2019-02-19T13:11:34.282Z,5.70
2019-02-19T13:14:08.493Z,5.70
2019-02-19T13:16:40.422Z,5.80
2019-02-19T13:19:11.850Z,5.70
2019-02-19T13:21:42.793Z,5.70
2019-02-19T13:24:15.145Z,5.70
2019-02-19T13:26:47.031Z,5.70
2019-02-19T13:29:17.973Z,5.60
2019-02-19T13:31:47.775Z,5.60
2019-02-19T13:34:17.318Z,5.60
2019-02-19T13:36:47.684Z,5.60
2019-02-19T13:39:19.060Z,5.50
2019-02-19T13:41:50.057Z,5.60
2019-02-19T13:44:23.147Z,5.60
2019-02-19T13:46:56.342Z,5.60
2019-02-19T13:49:25.537Z,5.50
2019-02-19T13:51:57.131Z,5.60
2019-02-19T13:54:32.365Z,5.60
2019-02-19T13:57:03.806Z,5.60
2019-02-19T13:59:38.862Z,5.60
2019-02-19T14:02:12.349Z,5.60
2019-02-19T14:04:44.463Z,5.60
2019-02-19T14:07:16.687Z,5.50
2019-02-19T14:09:47.751Z,5.50
2019-02-19T14:12:22.897Z,5.40
2019-02-19T14:14:57.314Z,5.40
2019-02-19T14:17:27.673Z,5.30
2019-02-19T14:20:05.982Z,5.30
2019-02-19T14:22:56.485Z,5.30
2019-02-19T14:25:48.466Z,5.20
2019-02-19T14:28:50.477Z,5.20
2019-02-19T14:31:45.094Z,5.20
2019-02-19T14:34:40.773Z,5.20
2019-02-19T14:37:23.767Z,5.20
2019-02-19T14:40:22.424Z,5.10
2019-02-19T14:43:23.290Z,5.10
2019-02-19T14:46:31.685Z,5.20
2019-02-19T14:49:37.097Z,5.10
2019-02-19T14:52:32.289Z,5.20
2019-02-19T14:55:20.225Z,5.10
2019-02-19T14:58:22.737Z,5.10
2019-02-19T15:01:17.557Z,5.10
2019-02-19T15:04:06.998Z,5.10
2019-02-19T15:07:09.324Z,5.10
2019-02-19T15:10:15.800Z,5.00
2019-02-19T15:13:00.273Z,5.00
2019-02-19T15:15:46.649Z,5.00
2019-02-19T15:18:34.544Z,5.10
2019-02-19T15:21:16.849Z,5.00
2019-02-19T15:23:57.605Z,5.00
2019-02-19T15:26:44.503Z,5.00
2019-02-19T15:29:31.525Z,5.00
2019-02-19T15:32:11.542Z,5.00
2019-02-19T15:35:16.382Z,5.00
2019-02-19T15:37:56.953Z,5.00
2019-02-19T15:40:38.676Z,5.00
2019-02-19T15:43:27.036Z,4.90
2019-02-19T15:46:18.312Z,4.90
2019-02-19T15:49:24.709Z,4.90
2019-02-19T15:52:23.314Z,4.90
2019-02-19T15:55:20.086Z,4.90
2019-02-19T15:58:25.685Z,4.90
2019-02-19T16:01:14.052Z,4.90
2019-02-19T16:03:57.373Z,4.90
2019-02-19T16:06:48.501Z,4.80
2019-02-19T16:09:41.846Z,4.80
2019-02-19T16:12:32.625Z,4.80
2019-02-19T16:15:31.308Z,4.80
2019-02-19T16:18:28.391Z,4.80
2019-02-19T16:21:15.374Z,4.80
2019-02-19T16:24:09.953Z,4.80
2019-02-19T16:26:53.161Z,4.80
2019-02-19T16:29:42.419Z,4.80
2019-02-19T16:32:41.189Z,4.70
2019-02-19T16:35:29.661Z,4.70
2019-02-19T16:38:18.070Z,4.70
2019-02-19T16:41:13.126Z,4.70
2019-02-19T16:44:08.929Z,4.70
2019-02-19T16:46:56.361Z,4.70
2019-02-19T16:49:41.148Z,4.60
2019-02-19T16:52:16.377Z,4.70
2019-02-19T16:54:56.772Z,4.60
2019-02-19T16:57:48.586Z,4.60
2019-02-19T17:00:40.716Z,4.60
2019-02-19T17:03:49.815Z,4.60
2019-02-19T17:06:34.279Z,4.60
2019-02-19T17:09:17.358Z,4.50
2019-02-19T17:12:08.113Z,4.50
2019-02-19T17:15:14.069Z,4.50
2019-02-19T17:18:06.939Z,4.50
2019-02-19T17:20:45.261Z,4.40
2019-02-19T17:23:36.985Z,4.30
2019-02-19T17:26:31.076Z,4.30
2019-02-19T17:29:11.094Z,4.30
2019-02-19T17:32:00.218Z,4.20
2019-02-19T17:34:45.504Z,4.20
2019-02-19T17:37:46.232Z,4.20
2019-02-19T17:40:38.529Z,4.20
2019-02-19T17:43:27.617Z,4.20
2019-02-19T17:46:26.237Z,4.10
2019-02-19T17:49:15.179Z,4.10
2019-02-19T17:52:06.989Z,4.20
2019-02-19T17:54:52.749Z,4.10
2019-02-19T17:57:41.745Z,4.10
2019-02-19T18:00:33.298Z,4.10
2019-02-19T18:03:28.418Z,4.10
2019-02-19T18:06:20.237Z,4.10
2019-02-19T18:09:22.269Z,4.10
2019-02-19T18:12:13.494Z,4.10
2019-02-19T18:15:10.277Z,4.10
2019-02-19T18:18:02.394Z,4.10
2019-02-19T18:20:33.106Z,4.10
2019-02-19T18:23:05.381Z,4.00
2019-02-19T18:25:36.105Z,4.00
2019-02-19T18:28:08.392Z,4.00
2019-02-19T18:30:39.141Z,3.90
2019-02-19T18:33:11.710Z,3.90
2019-02-19T18:35:45.610Z,3.80
2019-02-19T18:38:16.700Z,3.80
2019-02-19T18:40:48.427Z,3.80
2019-02-19T18:43:19.101Z,3.70
2019-02-19T18:45:50.325Z,3.70
2019-02-19T18:48:22.077Z,3.70
2019-02-19T18:50:58.488Z,3.60
2019-02-19T18:53:27.290Z,3.60
2019-02-19T18:56:00.075Z,3.60
2019-02-19T18:58:31.940Z,3.60
2019-02-19T19:01:05.338Z,3.60
2019-02-19T19:03:36.685Z,3.60
2019-02-19T19:06:07.768Z,3.50
2019-02-19T19:08:42.928Z,3.50
2019-02-19T19:11:20.444Z,3.50
2019-02-19T19:13:52.087Z,3.50
2019-02-19T19:16:23.616Z,3.40
2019-02-19T19:18:56.041Z,3.40
2019-02-19T19:21:27.478Z,3.40
2019-02-19T19:23:59.145Z,3.40
2019-02-19T19:26:31.367Z,3.40
2019-02-19T19:29:04.084Z,3.40
2019-02-19T19:31:35.468Z,3.30
2019-02-19T19:34:06.601Z,3.40
2019-02-19T19:36:36.782Z,3.30
2019-02-19T19:39:07.639Z,3.40
2019-02-19T19:41:42.022Z,3.30
2019-02-19T19:44:13.456Z,3.30
2019-02-19T19:46:46.029Z,3.30
2019-02-19T19:49:17.960Z,3.30
2019-02-19T19:51:48.799Z,3.30
2019-02-19T19:54:19.854Z,3.30
2019-02-19T19:56:49.408Z,3.20
2019-02-19T19:59:18.508Z,3.20
2019-02-19T20:01:50.320Z,3.20
2019-02-19T20:04:23.287Z,3.10
2019-02-19T20:06:54.547Z,3.10
2019-02-19T20:09:26.321Z,3.10
2019-02-19T20:11:58.253Z,3.00
2019-02-19T20:14:29.892Z,3.00
2019-02-19T20:17:01.966Z,3.00
2019-02-19T20:19:34.590Z,3.00
2019-02-19T20:22:05.037Z,2.90
2019-02-19T20:24:39.153Z,2.90
2019-02-19T20:27:12.562Z,2.90
2019-02-19T20:29:43.242Z,2.80
2019-02-19T20:32:15.129Z,2.80
2019-02-19T20:34:46.549Z,2.80
2019-02-19T20:37:19.798Z,2.70
2019-02-19T20:39:49.875Z,2.70
2019-02-19T20:42:22.089Z,2.80
2019-02-19T20:44:52.356Z,2.70
2019-02-19T20:47:24.943Z,2.70
2019-02-19T20:49:55.156Z,2.70
2019-02-19T20:52:26.024Z,2.70
2019-02-19T20:54:57.489Z,2.70
2019-02-19T20:57:29.621Z,2.70
2019-02-19T20:59:59.751Z,2.60
2019-02-19T21:02:29.884Z,2.60
2019-02-19T21:05:02.067Z,2.70
2019-02-19T21:07:34.159Z,2.70
2019-02-19T21:10:06.506Z,2.60
2019-02-19T21:12:37.427Z,2.60
2019-02-19T21:15:08.684Z,2.70
2019-02-19T21:17:39.229Z,2.60
2019-02-19T21:20:12.711Z,2.60
2019-02-19T21:22:43.538Z,2.60
2019-02-19T21:25:14.601Z,2.50
2019-02-19T21:27:45.291Z,2.50
2019-02-19T21:30:19.887Z,2.50
2019-02-19T21:32:51.281Z,2.50
2019-02-19T21:35:29.455Z,2.50
2019-02-19T21:38:01.593Z,2.50
2019-02-19T21:40:35.993Z,2.50
2019-02-19T21:43:09.076Z,2.50
2019-02-19T21:45:41.581Z,2.40
2019-02-19T21:48:14.996Z,2.40
2019-02-19T21:50:47.023Z,2.40
2019-02-19T21:53:19.949Z,2.30
2019-02-19T21:55:49.716Z,2.30
2019-02-19T21:58:20.619Z,2.30
2019-02-19T22:00:51.243Z,2.40
2019-02-19T22:03:22.800Z,2.30
2019-02-19T22:05:53.359Z,2.30
2019-02-19T22:08:26.223Z,2.30
2019-02-19T22:10:55.918Z,2.30
2019-02-19T22:13:27.348Z,2.30
2019-02-19T22:15:58.666Z,2.20
2019-02-19T22:18:29.364Z,2.30
2019-02-19T22:21:11.962Z,2.30
2019-02-19T22:23:43.597Z,2.30
2019-02-19T22:26:14.897Z,2.30
2019-02-19T22:28:45.942Z,2.20
2019-02-19T22:31:16.401Z,2.20
2019-02-19T22:33:48.474Z,2.20
2019-02-19T22:36:21.902Z,2.20
2019-02-19T22:38:55.513Z,2.20
2019-02-19T22:41:26.321Z,2.20
2019-02-19T22:43:57.422Z,2.20
2019-02-19T22:46:29.339Z,2.20
2019-02-19T22:49:02.762Z,2.20
2019-02-19T22:51:35.149Z,2.10
2019-02-19T22:54:10.830Z,2.10
2019-02-19T22:56:45.288Z,2.10
2019-02-19T22:59:15.336Z,2.00
2019-02-19T23:02:13.737Z,2.00
2019-02-19T23:04:45.498Z,2.00
2019-02-19T23:07:17.957Z,2.00
2019-02-19T23:09:49.784Z,1.90
2019-02-19T23:12:19.893Z,1.90
2019-02-19T23:14:48.856Z,1.90
2019-02-19T23:17:21.382Z,1.90
2019-02-19T23:19:53.202Z,1.80
2019-02-19T23:22:25.764Z,1.80
2019-02-19T23:24:55.657Z,1.80
2019-02-19T23:27:27.181Z,1.80
2019-02-19T23:29:58.201Z,1.80
2019-02-19T23:32:29.301Z,1.80
2019-02-19T23:35:22.649Z,1.80
2019-02-19T23:37:54.363Z,1.80
2019-02-19T23:40:26.368Z,1.80
2019-02-19T23:42:58.221Z,1.80
2019-02-19T23:45:30.854Z,1.70
2019-02-19T23:48:01.611Z,1.70
2019-02-19T23:50:34.349Z,1.70
2019-02-19T23:53:06.516Z,1.70
2019-02-19T23:55:39.122Z,1.70
2019-02-19T23:58:10.653Z,1.70
